createdAt,value
2017-11-22T00:00:39.384Z,9.40
2017-11-22T00:03:05.746Z,9.50
2017-11-22T00:05:36.994Z,9.40
2017-11-22T00:08:03.315Z,9.50
2017-11-22T00:10:29.641Z,9.40
2017-11-22T00:12:56.041Z,9.40
2017-11-22T00:15:23.708Z,9.40
2017-11-22T00:17:50.888Z,9.40
2017-11-22T00:20:17.290Z,9.40
2017-11-22T00:22:43.779Z,9.40
2017-11-22T00:25:10.179Z,9.50
2017-11-22T00:27:36.461Z,9.40
2017-11-22T00:30:03.664Z,9.40
2017-11-22T00:32:30.006Z,9.40
2017-11-22T00:34:56.326Z,9.40
2017-11-22T00:37:22.654Z,9.40
2017-11-22T00:39:49.130Z,9.40
2017-11-22T00:42:15.442Z,9.30
2017-11-22T00:44:41.771Z,9.30
2017-11-22T00:47:08.123Z,9.20
2017-11-22T00:49:34.453Z,9.20
2017-11-22T00:52:00.844Z,9.20
2017-11-22T00:54:27.259Z,9.20
2017-11-22T00:56:53.693Z,9.20
2017-11-22T00:59:20.081Z,9.20
2017-11-22T01:01:46.414Z,9.20
2017-11-22T01:04:12.730Z,9.10
2017-11-22T01:06:39.114Z,9.20
2017-11-22T01:09:05.476Z,9.20
2017-11-22T01:11:31.804Z,9.20
2017-11-22T01:13:58.136Z,9.20
2017-11-22T01:16:24.503Z,9.10
2017-11-22T01:18:50.813Z,9.10
2017-11-22T01:21:17.205Z,9.10
2017-11-22T01:23:44.313Z,9.20
2017-11-22T01:26:10.684Z,9.20
2017-11-22T01:28:37.019Z,9.20
2017-11-22T01:31:03.352Z,9.10
2017-11-22T01:33:29.680Z,9.20
2017-11-22T01:35:56.758Z,9.20
2017-11-22T01:38:23.122Z,9.10
2017-11-22T01:40:49.440Z,9.10
2017-11-22T01:43:15.869Z,9.10
2017-11-22T01:45:42.230Z,9.10
2017-11-22T01:48:08.536Z,9.10
2017-11-22T01:50:34.882Z,9.10
2017-11-22T01:53:01.176Z,9.10
2017-11-22T01:55:27.474Z,9.10
2017-11-22T01:57:53.752Z,9.10
2017-11-22T02:00:20.078Z,9.00
2017-11-22T02:02:46.413Z,9.00
2017-11-22T02:05:12.773Z,9.00
2017-11-22T02:07:39.093Z,9.00
2017-11-22T02:10:05.395Z,9.00
2017-11-22T02:12:31.804Z,9.00
2017-11-22T02:14:58.550Z,9.00
2017-11-22T02:17:24.918Z,9.00
2017-11-22T02:19:51.357Z,9.00
2017-11-22T02:22:17.687Z,9.00
2017-11-22T02:24:44.698Z,9.00
2017-11-22T02:27:11.006Z,9.00
2017-11-22T02:29:37.297Z,9.00
2017-11-22T02:32:03.633Z,9.10
2017-11-22T02:34:30.013Z,9.10
2017-11-22T02:36:56.398Z,9.00
2017-11-22T02:39:22.757Z,9.00
2017-11-22T02:41:49.806Z,9.00
2017-11-22T02:44:16.110Z,9.00
2017-11-22T02:46:42.409Z,9.00
2017-11-22T02:49:08.770Z,9.00
2017-11-22T02:51:35.101Z,9.00
2017-11-22T02:54:01.408Z,9.00
2017-11-22T02:56:27.766Z,9.00
2017-11-22T02:58:54.226Z,8.90
2017-11-22T03:01:20.604Z,8.90
2017-11-22T03:03:46.961Z,8.90
2017-11-22T03:06:13.259Z,8.90
2017-11-22T03:08:39.597Z,8.90
2017-11-22T03:11:05.913Z,8.80
2017-11-22T03:13:32.218Z,8.90
2017-11-22T03:15:59.244Z,8.80
2017-11-22T03:18:25.583Z,8.80
2017-11-22T03:20:51.912Z,8.80
2017-11-22T03:23:18.976Z,8.80
2017-11-22T03:25:45.366Z,8.80
2017-11-22T03:28:11.655Z,8.80
2017-11-22T03:30:39.083Z,8.80
2017-11-22T03:33:05.383Z,8.80
2017-11-22T03:35:31.710Z,8.70
2017-11-22T03:37:58.098Z,8.70
2017-11-22T03:40:24.443Z,8.70
2017-11-22T03:42:51.012Z,8.70
2017-11-22T03:45:17.335Z,8.80
2017-11-22T03:47:43.701Z,8.80
2017-11-22T03:50:14.804Z,8.80
2017-11-22T03:52:42.048Z,8.70
2017-11-22T03:55:08.441Z,8.70
2017-11-22T03:57:34.800Z,8.60
2017-11-22T04:00:01.135Z,8.70
2017-11-22T04:02:29.339Z,8.60
2017-11-22T04:04:55.735Z,8.60
2017-11-22T04:07:22.130Z,8.60
2017-11-22T04:09:48.489Z,8.60
2017-11-22T04:12:14.835Z,8.60
2017-11-22T04:14:41.171Z,8.60
2017-11-22T04:17:07.519Z,8.60
2017-11-22T04:19:38.669Z,8.70
2017-11-22T04:22:05.039Z,8.60
2017-11-22T04:24:31.409Z,8.50
2017-11-22T04:26:57.763Z,8.60
2017-11-22T04:29:24.118Z,8.60
2017-11-22T04:31:50.444Z,8.60
2017-11-22T04:34:16.766Z,8.70
2017-11-22T04:36:43.091Z,8.80
2017-11-22T04:39:09.420Z,8.70
2017-11-22T04:41:35.756Z,8.80
2017-11-22T04:44:02.043Z,8.70
2017-11-22T04:46:29.058Z,8.80
2017-11-22T04:48:55.351Z,8.80
2017-11-22T04:51:21.644Z,8.90
2017-11-22T04:53:48.766Z,9.00
2017-11-22T04:56:15.070Z,9.00
2017-11-22T04:58:41.373Z,8.90
2017-11-22T05:01:07.653Z,8.80
2017-11-22T05:03:34.003Z,8.80
2017-11-22T05:06:00.358Z,8.70
2017-11-22T05:08:26.645Z,8.60
2017-11-22T05:10:53.079Z,8.60
2017-11-22T05:13:19.451Z,8.50
2017-11-22T05:15:46.537Z,8.50
2017-11-22T05:18:12.894Z,8.40
2017-11-22T05:20:39.258Z,8.50
2017-11-22T05:23:06.284Z,8.30
2017-11-22T05:25:32.633Z,8.30
2017-11-22T05:27:59.710Z,8.20
2017-11-22T05:30:26.088Z,8.20
2017-11-22T05:32:52.461Z,8.20
2017-11-22T05:35:18.936Z,8.20
2017-11-22T05:37:45.244Z,8.20
2017-11-22T05:40:11.569Z,8.20
2017-11-22T05:42:37.923Z,8.20
2017-11-22T05:45:04.187Z,8.10
2017-11-22T05:47:37.601Z,8.10
2017-11-22T05:50:04.672Z,8.00
2017-11-22T05:52:30.954Z,8.00
2017-11-22T05:54:57.297Z,8.00
2017-11-22T05:57:23.616Z,8.00
2017-11-22T05:59:50.006Z,8.00
2017-11-22T06:02:16.390Z,8.00
2017-11-22T06:04:42.684Z,8.00
2017-11-22T06:07:09.022Z,8.00
2017-11-22T06:09:35.334Z,8.00
2017-11-22T06:12:01.677Z,8.00
2017-11-22T06:14:28.040Z,8.00
2017-11-22T06:16:55.190Z,8.00
2017-11-22T06:19:21.527Z,8.00
2017-11-22T06:21:54.798Z,8.00
2017-11-22T06:24:21.152Z,8.00
2017-11-22T06:26:47.474Z,8.00
2017-11-22T06:29:13.826Z,8.00
2017-11-22T06:31:40.157Z,8.10
2017-11-22T06:34:07.228Z,8.20
2017-11-22T06:36:33.519Z,8.20
2017-11-22T06:39:04.846Z,8.30
2017-11-22T06:41:31.984Z,8.50
2017-11-22T06:43:58.331Z,8.50
2017-11-22T06:46:24.682Z,8.60
2017-11-22T06:48:50.997Z,8.60
2017-11-22T06:51:17.354Z,8.60
2017-11-22T06:53:43.660Z,8.60
2017-11-22T06:56:10.022Z,8.80
2017-11-22T06:58:37.076Z,8.90
2017-11-22T07:01:03.950Z,8.90
2017-11-22T07:03:32.430Z,8.90
2017-11-22T07:05:58.824Z,8.90
2017-11-22T07:08:25.227Z,8.90
2017-11-22T07:10:51.557Z,8.90
2017-11-22T07:13:17.886Z,8.90
2017-11-22T07:15:44.322Z,8.80
2017-11-22T07:18:10.703Z,8.90
2017-11-22T07:20:37.791Z,8.90
2017-11-22T07:23:04.163Z,8.90
2017-11-22T07:25:31.261Z,8.90
2017-11-22T07:27:57.591Z,8.90
2017-11-22T07:30:23.882Z,8.90
2017-11-22T07:32:50.849Z,8.90
2017-11-22T07:35:17.952Z,9.00
2017-11-22T07:37:50.108Z,9.00
2017-11-22T07:40:16.398Z,9.10
2017-11-22T07:42:42.825Z,9.00
2017-11-22T07:45:09.834Z,9.10
2017-11-22T07:47:36.211Z,9.10
2017-11-22T07:50:02.506Z,9.20
2017-11-22T07:52:28.809Z,9.30
2017-11-22T07:54:55.200Z,9.30
2017-11-22T07:57:26.199Z,9.30
2017-11-22T07:59:52.533Z,9.30
2017-11-22T08:02:18.880Z,9.40
2017-11-22T08:04:45.207Z,9.40
2017-11-22T08:07:11.511Z,9.30
2017-11-22T08:09:38.564Z,9.40
2017-11-22T08:12:05.829Z,9.40
2017-11-22T08:14:32.162Z,9.40
2017-11-22T08:17:01.463Z,9.40
2017-11-22T08:19:27.877Z,9.50
2017-11-22T08:21:54.218Z,9.50
2017-11-22T08:24:20.983Z,9.50
2017-11-22T08:26:47.291Z,9.60
2017-11-22T08:29:13.614Z,9.60
2017-11-22T08:31:40.689Z,9.60
2017-11-22T08:34:07.069Z,9.60
2017-11-22T08:36:33.465Z,9.60
2017-11-22T08:39:00.558Z,9.70
2017-11-22T08:41:26.867Z,9.70
2017-11-22T08:43:54.913Z,9.70
2017-11-22T08:46:21.282Z,9.70
2017-11-22T08:48:47.970Z,9.80
2017-11-22T08:51:14.278Z,9.90
2017-11-22T08:53:40.628Z,10.00
2017-11-22T08:56:12.967Z,10.10
2017-11-22T08:58:39.237Z,10.30
2017-11-22T09:01:06.318Z,10.60
2017-11-22T09:03:39.843Z,10.60
2017-11-22T09:06:12.246Z,10.80
2017-11-22T09:08:38.662Z,10.80
2017-11-22T09:11:04.946Z,10.80
2017-11-22T09:13:32.081Z,10.90
2017-11-22T09:15:58.458Z,10.90
2017-11-22T09:18:30.696Z,10.80
2017-11-22T09:20:57.895Z,10.90
2017-11-22T09:23:24.312Z,10.90
2017-11-22T09:25:50.593Z,10.80
2017-11-22T09:28:16.926Z,10.70
2017-11-22T09:30:49.493Z,10.80
2017-11-22T09:33:16.787Z,10.50
2017-11-22T09:35:43.087Z,10.40
2017-11-22T09:38:09.379Z,10.50
2017-11-22T09:40:35.728Z,10.60
2017-11-22T09:43:02.121Z,10.40
2017-11-22T09:45:28.498Z,10.20
2017-11-22T09:47:54.828Z,10.30
2017-11-22T09:50:21.255Z,10.30
2017-11-22T09:52:47.622Z,10.10
2017-11-22T09:55:14.036Z,10.10
2017-11-22T09:57:40.419Z,10.00
2017-11-22T10:00:06.686Z,10.00
2017-11-22T10:02:32.979Z,9.90
2017-11-22T10:04:59.279Z,10.00
2017-11-22T10:07:26.335Z,10.10
2017-11-22T10:09:53.392Z,10.10
2017-11-22T10:12:21.562Z,10.20
2017-11-22T10:14:48.658Z,10.10
2017-11-22T10:17:15.296Z,10.00
2017-11-22T10:19:42.797Z,10.00
2017-11-22T10:22:09.898Z,10.10
2017-11-22T10:24:42.503Z,10.00
2017-11-22T10:27:15.139Z,10.10
2017-11-22T10:29:45.492Z,10.30
2017-11-22T10:32:17.950Z,10.40
2017-11-22T10:34:44.308Z,10.40
2017-11-22T10:37:10.600Z,10.40
2017-11-22T10:39:37.198Z,10.30
2017-11-22T10:42:03.530Z,10.30
2017-11-22T10:44:29.854Z,10.30
2017-11-22T10:46:56.181Z,10.20
2017-11-22T10:49:22.558Z,10.30
2017-11-22T10:51:48.924Z,10.50
2017-11-22T10:54:15.297Z,10.60
2017-11-22T10:56:42.455Z,10.60
2017-11-22T10:59:09.657Z,10.50
2017-11-22T11:01:36.123Z,10.50
2017-11-22T11:04:02.452Z,10.50
2017-11-22T11:06:28.748Z,10.60
2017-11-22T11:08:55.167Z,10.60
2017-11-22T11:11:21.467Z,10.70
2017-11-22T11:13:47.879Z,10.60
2017-11-22T11:16:14.200Z,10.60
2017-11-22T11:18:40.608Z,10.70
2017-11-22T11:21:06.966Z,11.00
2017-11-22T11:23:33.348Z,10.90
2017-11-22T11:25:59.722Z,10.90
2017-11-22T11:28:26.233Z,10.70
2017-11-22T11:30:52.546Z,10.90
2017-11-22T11:33:18.914Z,10.80
2017-11-22T11:36:03.702Z,10.80
2017-11-22T11:38:30.137Z,10.70
2017-11-22T11:40:56.639Z,10.60
2017-11-22T11:43:22.997Z,10.60
2017-11-22T11:45:49.304Z,10.70
2017-11-22T11:48:15.717Z,10.70
2017-11-22T11:50:42.022Z,10.60
2017-11-22T11:53:09.143Z,10.60
2017-11-22T11:55:35.492Z,10.60
2017-11-22T11:58:01.878Z,10.70
2017-11-22T12:00:28.941Z,10.90
2017-11-22T12:02:55.359Z,10.90
2017-11-22T12:05:21.750Z,10.80
2017-11-22T12:07:48.140Z,10.80
2017-11-22T12:10:14.448Z,10.90
2017-11-22T12:12:40.807Z,11.00
2017-11-22T12:15:07.218Z,10.80
2017-11-22T12:17:35.397Z,10.90
2017-11-22T12:20:01.749Z,11.00
2017-11-22T12:22:33.794Z,11.10
2017-11-22T12:25:00.211Z,11.10
2017-11-22T12:27:26.840Z,11.50
2017-11-22T12:29:53.656Z,11.50
2017-11-22T12:32:21.897Z,11.90
2017-11-22T12:34:55.418Z,11.90
2017-11-22T12:37:21.875Z,12.10
2017-11-22T12:39:48.405Z,12.10
2017-11-22T12:42:14.756Z,12.60
2017-11-22T12:44:41.295Z,13.90
2017-11-22T12:47:07.795Z,14.80
2017-11-22T12:49:34.950Z,13.50
2017-11-22T12:52:02.173Z,13.80
2017-11-22T12:54:28.532Z,13.80
2017-11-22T12:56:54.926Z,14.20
2017-11-22T12:59:21.236Z,14.00
2017-11-22T13:01:47.560Z,14.70
2017-11-22T13:04:13.921Z,15.20
2017-11-22T13:06:40.316Z,15.70
2017-11-22T13:09:06.614Z,15.90
2017-11-22T13:11:34.303Z,15.80
2017-11-22T13:14:06.963Z,15.60
2017-11-22T13:16:34.214Z,15.20
2017-11-22T13:19:00.525Z,15.10
2017-11-22T13:21:26.998Z,14.70
2017-11-22T13:23:53.314Z,15.00
2017-11-22T13:26:20.356Z,14.60
2017-11-22T13:28:47.094Z,14.60
2017-11-22T13:31:13.517Z,13.80
2017-11-22T13:33:39.877Z,13.40
2017-11-22T13:36:06.294Z,13.00
2017-11-22T13:38:33.511Z,12.30
2017-11-22T13:41:00.232Z,12.20
2017-11-22T13:43:26.554Z,12.40
2017-11-22T13:45:52.831Z,12.50
2017-11-22T13:48:19.174Z,12.40
2017-11-22T13:50:45.576Z,12.50
2017-11-22T13:53:12.857Z,12.30
2017-11-22T13:55:39.513Z,12.30
2017-11-22T13:58:06.584Z,12.20
2017-11-22T14:00:32.945Z,12.20
2017-11-22T14:02:59.385Z,12.30
2017-11-22T14:05:25.843Z,12.30
2017-11-22T14:07:52.583Z,12.20
2017-11-22T14:10:19.321Z,12.00
2017-11-22T14:12:45.873Z,11.90
2017-11-22T14:15:13.110Z,12.20
2017-11-22T14:17:39.446Z,12.10
2017-11-22T14:20:07.155Z,12.20
2017-11-22T14:22:33.474Z,12.10
2017-11-22T14:24:59.886Z,12.10
2017-11-22T14:27:26.198Z,12.10
2017-11-22T14:29:52.718Z,12.00
2017-11-22T14:32:19.095Z,12.10
2017-11-22T14:34:45.401Z,12.10
2017-11-22T14:37:11.720Z,11.90
2017-11-22T14:39:38.891Z,11.60
2017-11-22T14:42:06.182Z,11.40
2017-11-22T14:44:32.564Z,11.40
2017-11-22T14:46:58.980Z,11.20
2017-11-22T14:49:25.357Z,11.10
2017-11-22T14:51:52.485Z,10.90
2017-11-22T14:54:18.993Z,10.90
2017-11-22T14:56:45.337Z,10.90
2017-11-22T14:59:11.702Z,10.80
2017-11-22T15:01:38.224Z,10.80
2017-11-22T15:04:04.638Z,10.80
2017-11-22T15:06:31.116Z,10.70
2017-11-22T15:08:57.526Z,10.60
2017-11-22T15:11:23.838Z,10.60
2017-11-22T15:13:50.190Z,10.60
2017-11-22T15:16:16.543Z,10.60
2017-11-22T15:18:43.158Z,10.70
2017-11-22T15:21:09.497Z,10.60
2017-11-22T15:23:36.286Z,10.70
2017-11-22T15:26:03.663Z,10.70
2017-11-22T15:28:30.541Z,10.70
2017-11-22T15:30:57.115Z,10.60
2017-11-22T15:33:24.302Z,10.50
2017-11-22T15:35:50.628Z,10.40
2017-11-22T15:38:16.917Z,10.40
2017-11-22T15:40:43.271Z,10.30
2017-11-22T15:43:09.649Z,10.20
2017-11-22T15:45:35.979Z,10.10
2017-11-22T15:48:02.288Z,10.10
2017-11-22T15:50:28.730Z,10.10
2017-11-22T15:52:55.426Z,10.00
2017-11-22T15:55:22.308Z,9.90
2017-11-22T15:57:48.777Z,9.80
2017-11-22T16:00:15.495Z,9.70
2017-11-22T16:02:42.502Z,9.70
2017-11-22T16:05:09.039Z,9.60
2017-11-22T16:07:35.360Z,9.50
2017-11-22T16:10:01.727Z,9.50
2017-11-22T16:12:28.813Z,9.30
2017-11-22T16:14:56.179Z,9.30
2017-11-22T16:17:23.736Z,9.20
2017-11-22T16:19:50.145Z,9.20
2017-11-22T16:22:16.620Z,9.10
2017-11-22T16:24:42.957Z,9.10
2017-11-22T16:27:09.287Z,9.00
2017-11-22T16:29:35.615Z,8.90
2017-11-22T16:32:02.011Z,8.80
2017-11-22T16:34:28.500Z,8.70
2017-11-22T16:36:54.843Z,8.60
2017-11-22T16:39:21.115Z,8.50
2017-11-22T16:41:48.154Z,8.40
2017-11-22T16:44:14.556Z,8.40
2017-11-22T16:46:40.917Z,8.30
2017-11-22T16:49:07.272Z,8.20
2017-11-22T16:51:33.615Z,8.10
2017-11-22T16:53:59.980Z,8.00
2017-11-22T16:56:26.379Z,8.00
2017-11-22T16:58:52.892Z,7.90
2017-11-22T17:01:19.319Z,7.80
2017-11-22T17:03:45.963Z,7.80
2017-11-22T17:06:12.994Z,7.60
2017-11-22T17:08:39.833Z,7.60
2017-11-22T17:11:06.848Z,7.50
2017-11-22T17:13:33.226Z,7.40
2017-11-22T17:16:00.183Z,7.30
2017-11-22T17:18:28.003Z,7.20
2017-11-22T17:20:54.980Z,7.20
2017-11-22T17:23:22.625Z,7.20
2017-11-22T17:25:49.216Z,7.10
2017-11-22T17:28:15.669Z,7.10
2017-11-22T17:30:42.060Z,7.00
2017-11-22T17:33:09.095Z,7.00
2017-11-22T17:35:35.433Z,7.00
2017-11-22T17:38:01.874Z,6.90
2017-11-22T17:40:29.886Z,6.70
2017-11-22T17:42:56.203Z,6.70
2017-11-22T17:45:22.575Z,6.70
2017-11-22T17:47:48.884Z,6.60
2017-11-22T17:50:15.164Z,6.50
2017-11-22T17:52:41.560Z,6.40
2017-11-22T17:55:07.901Z,6.50
2017-11-22T17:57:34.818Z,6.40
2017-11-22T18:00:01.760Z,6.50
2017-11-22T18:02:28.499Z,6.40
2017-11-22T18:04:55.707Z,6.30
2017-11-22T18:07:22.749Z,6.30
2017-11-22T18:09:49.100Z,6.30
2017-11-22T18:12:16.212Z,6.20
2017-11-22T18:14:42.712Z,6.20
2017-11-22T18:17:09.159Z,6.20
2017-11-22T18:19:35.538Z,6.10
2017-11-22T18:22:03.714Z,6.10
2017-11-22T18:24:30.845Z,6.10
2017-11-22T18:26:57.196Z,6.10
2017-11-22T18:29:23.688Z,6.10
2017-11-22T18:31:50.088Z,6.10
2017-11-22T18:34:16.378Z,6.00
2017-11-22T18:36:42.807Z,6.00
2017-11-22T18:39:09.888Z,6.00
2017-11-22T18:41:36.932Z,5.90
2017-11-22T18:44:03.983Z,5.90
2017-11-22T18:46:31.060Z,5.90
2017-11-22T18:48:57.798Z,5.90
2017-11-22T18:51:24.218Z,5.80
2017-11-22T18:53:50.610Z,5.80
2017-11-22T18:56:16.941Z,5.70
2017-11-22T18:58:43.403Z,5.70
2017-11-22T19:01:10.932Z,5.60
2017-11-22T19:03:37.706Z,5.50
2017-11-22T19:06:04.942Z,5.50
2017-11-22T19:08:31.771Z,5.50
2017-11-22T19:10:58.110Z,5.50
2017-11-22T19:13:25.182Z,5.50
2017-11-22T19:15:51.865Z,5.40
2017-11-22T19:18:18.481Z,5.40
2017-11-22T19:20:44.827Z,5.40
2017-11-22T19:23:11.602Z,5.30
2017-11-22T19:25:37.923Z,5.30
2017-11-22T19:28:05.008Z,5.30
2017-11-22T19:30:32.146Z,5.30
2017-11-22T19:32:58.821Z,5.30
2017-11-22T19:35:25.158Z,5.30
2017-11-22T19:37:51.535Z,5.30
2017-11-22T19:40:18.516Z,5.20
2017-11-22T19:42:45.213Z,5.20
2017-11-22T19:45:11.839Z,5.20
2017-11-22T19:47:38.602Z,5.20
2017-11-22T19:50:05.572Z,5.20
2017-11-22T19:52:32.416Z,5.20
2017-11-22T19:55:00.359Z,5.10
2017-11-22T19:57:26.825Z,5.10
2017-11-22T19:59:53.918Z,5.10
2017-11-22T20:02:20.282Z,5.20
2017-11-22T20:04:46.653Z,5.10
2017-11-22T20:07:31.544Z,5.10
2017-11-22T20:09:57.899Z,5.10
2017-11-22T20:12:25.424Z,5.10
2017-11-22T20:14:53.186Z,4.90
2017-11-22T20:17:20.787Z,4.90
2017-11-22T20:19:47.459Z,4.90
2017-11-22T20:22:14.869Z,4.80
2017-11-22T20:24:41.927Z,4.90
2017-11-22T20:27:09.999Z,4.90
2017-11-22T20:29:36.413Z,4.80
2017-11-22T20:32:03.608Z,4.80
2017-11-22T20:34:31.086Z,4.80
2017-11-22T20:36:58.215Z,4.80
2017-11-22T20:39:24.564Z,4.80
2017-11-22T20:41:53.640Z,4.80
2017-11-22T20:44:20.312Z,4.80
2017-11-22T20:46:47.585Z,4.80
2017-11-22T20:49:14.026Z,4.80
2017-11-22T20:51:40.371Z,4.70
2017-11-22T20:54:06.759Z,4.70
2017-11-22T20:56:33.177Z,4.70
2017-11-22T20:59:00.237Z,4.70
2017-11-22T21:01:27.314Z,4.60
2017-11-22T21:03:53.678Z,4.60
2017-11-22T21:06:20.194Z,4.60
2017-11-22T21:08:46.518Z,4.50
2017-11-22T21:11:13.028Z,4.50
2017-11-22T21:13:40.222Z,4.50
2017-11-22T21:16:06.530Z,4.50
2017-11-22T21:18:32.792Z,4.40
2017-11-22T21:20:59.090Z,4.30
2017-11-22T21:23:25.392Z,4.20
2017-11-22T21:25:53.366Z,4.10
2017-11-22T21:28:19.646Z,4.10
2017-11-22T21:30:46.055Z,4.20
2017-11-22T21:33:12.457Z,4.20
2017-11-22T21:35:38.789Z,4.20
2017-11-22T21:38:06.009Z,4.10
2017-11-22T21:40:32.313Z,4.10
2017-11-22T21:42:58.573Z,4.10
2017-11-22T21:45:24.893Z,4.10
2017-11-22T21:47:51.529Z,4.10
2017-11-22T21:50:17.903Z,4.00
2017-11-22T21:52:44.986Z,4.00
2017-11-22T21:55:11.349Z,4.00
2017-11-22T21:57:37.739Z,4.10
2017-11-22T22:00:04.040Z,4.00
2017-11-22T22:02:31.093Z,4.00
2017-11-22T22:04:57.381Z,4.00
2017-11-22T22:07:23.683Z,4.10
2017-11-22T22:09:50.133Z,4.10
2017-11-22T22:12:16.442Z,4.10
2017-11-22T22:14:42.806Z,4.10
2017-11-22T22:17:09.138Z,4.10
2017-11-22T22:19:35.483Z,4.20
2017-11-22T22:22:01.943Z,4.20
2017-11-22T22:24:28.309Z,4.30
2017-11-22T22:26:54.663Z,4.20
2017-11-22T22:29:21.043Z,4.20
2017-11-22T22:31:48.092Z,4.30
2017-11-22T22:34:15.157Z,4.30
2017-11-22T22:36:42.141Z,4.30
2017-11-22T22:39:08.441Z,4.40
2017-11-22T22:41:34.705Z,4.40
2017-11-22T22:44:01.032Z,4.40
2017-11-22T22:46:27.345Z,4.50
2017-11-22T22:48:53.691Z,4.50
2017-11-22T22:51:20.042Z,4.50
2017-11-22T22:53:46.436Z,4.60
2017-11-22T22:56:12.740Z,4.60
2017-11-22T22:58:39.832Z,4.70
2017-11-22T23:01:06.175Z,4.70
2017-11-22T23:03:32.485Z,4.80
2017-11-22T23:05:58.792Z,4.70
2017-11-22T23:08:25.201Z,4.70
2017-11-22T23:10:52.243Z,4.70
2017-11-22T23:13:18.498Z,4.70
2017-11-22T23:15:44.828Z,4.70
2017-11-22T23:18:11.138Z,4.70
2017-11-22T23:20:38.230Z,4.70
2017-11-22T23:23:04.571Z,4.70
2017-11-22T23:25:30.897Z,4.60
2017-11-22T23:27:57.273Z,4.60
2017-11-22T23:30:23.595Z,4.60
2017-11-22T23:32:49.902Z,4.60
2017-11-22T23:35:16.211Z,4.50
2017-11-22T23:37:42.548Z,4.50
2017-11-22T23:40:08.871Z,4.50
2017-11-22T23:42:35.281Z,4.40
2017-11-22T23:45:02.365Z,4.30
2017-11-22T23:47:28.815Z,4.30
2017-11-22T23:49:55.147Z,4.30
2017-11-22T23:52:21.448Z,4.30
2017-11-22T23:54:47.775Z,4.20
2017-11-22T23:57:14.125Z,4.20
2017-11-22T23:59:40.439Z,4.20
